Congaree, South Carolina
Current Conditions -  °F | °C
As of 6:58 PM on Sunday 21 Dec 2014 (Local Time) from KMMT Reporting Station
Overcast Overcast  
Wind Chill: 49°   Ceiling: 4500
Heat Index: 49°   Visibility: 10mi
Dew Point: 42°   Wind: 2mph
Humidity: 76%   Direction: NA
Pressure: 30.18"   Gusts: NA
Location:  33.9203°N, 80.6788°W
Report Text: KMMT 212358Z AUTO VRB02KT 10SM OVC045 10/06 A3018 RMK AO2 RAE2316 SLP223 P0000 60000 T00960056 10124 20095 53002
Loading
Personal Weather Stations






























Interactive Weather Map New forecast layout! Learn more

10-Day Weather Forecast

Advertisements
Track Severe Weather on mobile